createdAt,value
2019-03-29T00:00:38.350Z,0.00
2019-03-29T00:01:38.348Z,0.00
2019-03-29T00:02:38.378Z,0.00
2019-03-29T00:03:38.376Z,0.00
2019-03-29T00:04:38.347Z,0.00
2019-03-29T00:05:38.333Z,0.00
2019-03-29T00:06:38.337Z,0.00
2019-03-29T00:07:39.885Z,0.00
2019-03-29T00:08:38.332Z,0.00
2019-03-29T00:09:38.369Z,0.00
2019-03-29T00:10:38.324Z,0.00
2019-03-29T00:11:38.942Z,0.00
2019-03-29T00:12:38.348Z,0.00
2019-03-29T00:13:38.329Z,0.00
2019-03-29T00:14:38.328Z,0.00
2019-03-29T00:15:38.354Z,0.00
2019-03-29T00:16:38.314Z,0.00
2019-03-29T00:17:38.341Z,0.00
2019-03-29T00:18:38.306Z,0.00
2019-03-29T00:19:38.304Z,0.00
2019-03-29T00:20:38.307Z,0.00
2019-03-29T00:21:39.114Z,0.00
2019-03-29T00:22:38.338Z,0.00
2019-03-29T00:23:38.304Z,0.00
2019-03-29T00:24:38.297Z,0.00
2019-03-29T00:25:38.292Z,0.00
2019-03-29T00:26:38.289Z,0.00
2019-03-29T00:27:38.315Z,0.00
2019-03-29T00:28:38.325Z,0.00
2019-03-29T00:29:38.285Z,0.00
2019-03-29T00:30:38.283Z,0.00
2019-03-29T00:31:38.387Z,0.00
2019-03-29T00:32:38.305Z,0.00
2019-03-29T00:33:38.303Z,0.00
2019-03-29T00:34:38.309Z,0.00
2019-03-29T00:35:38.269Z,0.00
2019-03-29T00:36:38.271Z,0.00
2019-03-29T00:37:38.297Z,0.00
2019-03-29T00:38:38.273Z,0.00
2019-03-29T00:39:38.265Z,0.00
2019-03-29T00:40:38.306Z,0.00
2019-03-29T00:41:38.254Z,0.00
2019-03-29T00:42:38.254Z,0.00
2019-03-29T00:43:38.291Z,0.00
2019-03-29T00:44:38.254Z,0.00
2019-03-29T00:45:38.254Z,0.00
2019-03-29T00:46:38.247Z,0.00
2019-03-29T00:47:38.242Z,0.00
2019-03-29T00:48:38.279Z,0.00
2019-03-29T00:49:38.238Z,0.00
2019-03-29T00:50:38.241Z,0.00
2019-03-29T00:51:38.240Z,0.00
2019-03-29T00:52:38.228Z,0.00
2019-03-29T00:53:38.265Z,0.00
2019-03-29T00:54:38.227Z,0.00
2019-03-29T00:55:38.227Z,0.00
2019-03-29T00:56:38.975Z,0.00
2019-03-29T00:57:38.227Z,0.00
2019-03-29T00:58:38.261Z,0.00
2019-03-29T00:59:38.215Z,0.00
2019-03-29T01:00:38.224Z,0.00
2019-03-29T01:01:38.207Z,0.00
2019-03-29T01:02:38.212Z,0.00
2019-03-29T01:03:38.231Z,0.00
2019-03-29T01:04:38.201Z,0.00
2019-03-29T01:05:38.202Z,0.00
2019-03-29T01:06:39.136Z,0.00
2019-03-29T01:07:38.236Z,0.00
2019-03-29T01:08:38.414Z,0.00
2019-03-29T01:09:38.201Z,0.00
2019-03-29T01:10:38.252Z,0.00
2019-03-29T01:11:38.200Z,0.00
2019-03-29T01:12:38.184Z,0.00
2019-03-29T01:13:38.224Z,0.00
2019-03-29T01:14:38.184Z,0.00
2019-03-29T01:15:38.174Z,0.00
2019-03-29T01:16:38.176Z,0.00
2019-03-29T01:17:38.173Z,0.00
2019-03-29T01:18:38.327Z,0.00
2019-03-29T01:19:38.170Z,0.00
2019-03-29T01:20:38.170Z,0.00
2019-03-29T01:21:38.160Z,0.00
2019-03-29T01:22:38.162Z,0.00
2019-03-29T01:23:38.196Z,0.00
2019-03-29T01:24:38.151Z,0.00
2019-03-29T01:25:38.170Z,0.00
2019-03-29T01:26:38.160Z,0.00
2019-03-29T01:27:38.143Z,0.00
2019-03-29T01:28:38.667Z,0.00
2019-03-29T01:29:38.140Z,0.00
2019-03-29T01:30:38.144Z,0.00
2019-03-29T01:31:38.136Z,0.00
2019-03-29T01:32:38.131Z,0.00
2019-03-29T01:33:38.169Z,0.00
2019-03-29T01:34:38.135Z,0.00
2019-03-29T01:35:38.132Z,0.00
2019-03-29T01:36:38.123Z,0.00
2019-03-29T01:37:38.127Z,0.00
2019-03-29T01:38:38.163Z,0.00
2019-03-29T01:39:38.152Z,0.00
2019-03-29T01:40:38.120Z,0.00
2019-03-29T01:41:38.113Z,0.00
2019-03-29T01:42:38.122Z,0.00
2019-03-29T01:43:38.153Z,0.00
2019-03-29T01:44:38.119Z,0.00
2019-03-29T01:45:38.179Z,0.00
2019-03-29T01:46:38.315Z,0.00
2019-03-29T01:47:38.094Z,0.00
2019-03-29T01:48:38.102Z,0.00
2019-03-29T01:49:38.128Z,0.00
2019-03-29T01:50:38.097Z,0.00
2019-03-29T01:51:38.089Z,0.00
2019-03-29T01:52:38.081Z,0.00
2019-03-29T01:53:38.213Z,0.00
2019-03-29T01:54:38.137Z,0.00
2019-03-29T01:55:38.081Z,0.00
2019-03-29T01:56:38.082Z,0.00
2019-03-29T01:57:38.077Z,0.00
2019-03-29T01:58:38.069Z,0.00
2019-03-29T01:59:38.095Z,0.00
2019-03-29T02:00:38.099Z,0.00
2019-03-29T02:01:38.057Z,0.00
2019-03-29T02:02:38.062Z,0.00
2019-03-29T02:03:38.064Z,0.00
2019-03-29T02:04:38.096Z,0.00
2019-03-29T02:05:38.058Z,0.00
2019-03-29T02:06:38.049Z,0.00
2019-03-29T02:07:38.191Z,0.00
2019-03-29T02:08:38.187Z,0.00
2019-03-29T02:09:38.078Z,0.00
2019-03-29T02:10:38.040Z,0.00
2019-03-29T02:11:38.039Z,0.00
2019-03-29T02:12:38.035Z,0.00
2019-03-29T02:13:38.030Z,0.00
2019-03-29T02:14:38.064Z,0.00
2019-03-29T02:15:38.166Z,0.00
2019-03-29T02:16:38.022Z,0.00
2019-03-29T02:17:38.022Z,0.00
2019-03-29T02:18:38.017Z,0.00
2019-03-29T02:19:38.065Z,0.00
2019-03-29T02:20:38.020Z,0.00
2019-03-29T02:21:38.010Z,0.00
2019-03-29T02:22:38.014Z,0.00
2019-03-29T02:23:38.034Z,0.00
2019-03-29T02:24:38.000Z,0.00
2019-03-29T02:25:38.039Z,0.00
2019-03-29T02:26:37.999Z,0.00
2019-03-29T02:27:38.003Z,0.00
2019-03-29T02:28:38.043Z,0.00
2019-03-29T02:29:37.992Z,0.00
2019-03-29T02:30:37.995Z,0.00
2019-03-29T02:31:41.856Z,0.00
2019-03-29T02:32:37.986Z,0.00
2019-03-29T02:33:37.983Z,0.00
2019-03-29T02:34:38.021Z,0.00
2019-03-29T02:35:38.970Z,0.00
2019-03-29T02:36:37.994Z,0.00
2019-03-29T02:37:37.986Z,0.00
2019-03-29T02:38:54.085Z,0.00
2019-03-29T02:39:37.977Z,0.00
2019-03-29T02:40:37.970Z,0.00
2019-03-29T02:41:37.955Z,0.00
2019-03-29T02:42:37.960Z,0.00
2019-03-29T02:43:38.679Z,0.00
2019-03-29T02:44:37.955Z,0.00
2019-03-29T02:45:37.982Z,0.00
2019-03-29T02:46:37.953Z,0.00
2019-03-29T02:47:37.942Z,0.00
2019-03-29T02:48:37.981Z,0.00
2019-03-29T02:49:37.937Z,0.00
2019-03-29T02:50:37.934Z,0.00
2019-03-29T02:51:37.938Z,0.00
2019-03-29T02:52:37.932Z,0.00
2019-03-29T02:53:37.964Z,0.00
2019-03-29T02:54:37.924Z,0.00
2019-03-29T02:55:37.926Z,0.00
2019-03-29T02:56:37.919Z,0.00
2019-03-29T02:57:37.918Z,0.00
2019-03-29T02:58:37.960Z,0.00
2019-03-29T02:59:37.909Z,0.00
2019-03-29T03:00:37.905Z,0.00
2019-03-29T03:01:37.908Z,0.00
2019-03-29T03:02:37.917Z,0.00
2019-03-29T03:03:37.942Z,0.00
2019-03-29T03:04:37.938Z,0.00
2019-03-29T03:05:37.897Z,0.00
2019-03-29T03:06:37.899Z,0.00
2019-03-29T03:07:37.893Z,0.00
2019-03-29T03:08:37.920Z,0.00
2019-03-29T03:09:37.884Z,0.00
2019-03-29T03:10:37.921Z,0.00
2019-03-29T03:11:37.884Z,0.00
2019-03-29T03:12:37.880Z,0.00
2019-03-29T03:13:37.911Z,0.00
2019-03-29T03:14:37.873Z,0.00
2019-03-29T03:15:37.867Z,0.00
2019-03-29T03:16:37.868Z,0.00
2019-03-29T03:17:37.865Z,0.00
2019-03-29T03:18:37.893Z,0.00
2019-03-29T03:19:37.900Z,0.00
2019-03-29T03:20:37.871Z,0.00
2019-03-29T03:21:37.854Z,0.00
2019-03-29T03:22:37.853Z,0.00
2019-03-29T03:23:37.885Z,0.00
2019-03-29T03:24:37.845Z,0.00
2019-03-29T03:25:37.854Z,0.00
2019-03-29T03:26:37.839Z,0.00
2019-03-29T03:27:37.838Z,0.00
2019-03-29T03:28:37.876Z,0.00
2019-03-29T03:29:37.832Z,0.00
2019-03-29T03:30:37.835Z,0.00
2019-03-29T03:31:37.844Z,0.00
2019-03-29T03:32:37.869Z,0.00
2019-03-29T03:33:37.834Z,0.00
2019-03-29T03:34:37.835Z,0.00
2019-03-29T03:35:37.822Z,0.00
2019-03-29T03:36:37.814Z,0.00
2019-03-29T03:37:37.837Z,0.00
2019-03-29T03:38:37.855Z,0.00
2019-03-29T03:39:37.812Z,0.00
2019-03-29T03:40:37.805Z,0.00
2019-03-29T03:41:37.805Z,0.00
2019-03-29T03:42:37.854Z,0.00
2019-03-29T03:43:37.806Z,0.00
2019-03-29T03:44:37.791Z,0.00
2019-03-29T03:45:37.788Z,0.00
2019-03-29T03:46:37.791Z,0.00
2019-03-29T03:47:37.786Z,0.00
2019-03-29T03:48:37.847Z,0.00
2019-03-29T03:49:37.778Z,0.00
2019-03-29T03:50:37.781Z,0.00
2019-03-29T03:51:37.775Z,0.00
2019-03-29T03:52:37.773Z,0.00
2019-03-29T03:53:37.810Z,0.00
2019-03-29T03:54:37.763Z,0.00
2019-03-29T03:55:37.764Z,0.00
2019-03-29T03:56:37.769Z,0.00
2019-03-29T03:57:37.759Z,0.00
2019-03-29T03:58:37.784Z,0.00
2019-03-29T03:59:37.795Z,0.00
2019-03-29T04:00:37.755Z,0.00
2019-03-29T04:01:37.753Z,0.00
2019-03-29T04:02:37.749Z,0.00
2019-03-29T04:03:37.791Z,0.00
2019-03-29T04:04:38.156Z,0.00
2019-03-29T04:05:37.744Z,0.00
2019-03-29T04:06:37.747Z,0.00
2019-03-29T04:07:37.730Z,0.00
2019-03-29T04:08:37.763Z,0.00
2019-03-29T04:09:49.616Z,0.00
2019-03-29T04:10:41.918Z,0.00
2019-03-29T04:11:37.725Z,0.00
2019-03-29T04:12:37.716Z,0.00
2019-03-29T04:13:37.722Z,0.00
2019-03-29T04:14:37.755Z,0.00
2019-03-29T04:15:37.712Z,0.00
2019-03-29T04:16:37.707Z,0.00
2019-03-29T04:17:37.705Z,0.00
2019-03-29T04:18:37.737Z,0.00
2019-03-29T04:19:37.699Z,0.00
2019-03-29T04:20:37.728Z,0.00
2019-03-29T04:21:37.698Z,0.00
2019-03-29T04:22:37.694Z,0.00
2019-03-29T04:23:37.692Z,0.00
2019-03-29T04:24:37.693Z,0.00
2019-03-29T04:25:37.691Z,0.00
2019-03-29T04:26:37.724Z,0.00
2019-03-29T04:27:37.685Z,0.00
2019-03-29T04:28:37.724Z,0.00
2019-03-29T04:29:37.687Z,0.00
2019-03-29T04:30:37.672Z,0.00
2019-03-29T04:31:37.684Z,0.00
2019-03-29T04:32:37.666Z,0.00
2019-03-29T04:33:37.701Z,0.00
2019-03-29T04:34:37.700Z,0.00
2019-03-29T04:35:37.662Z,0.00
2019-03-29T04:36:37.657Z,0.00
2019-03-29T04:37:37.658Z,0.00
2019-03-29T04:38:37.692Z,0.00
2019-03-29T04:39:37.649Z,0.00
2019-03-29T04:40:37.644Z,0.00
2019-03-29T04:41:37.644Z,0.00
2019-03-29T04:42:37.646Z,0.00
2019-03-29T04:43:37.666Z,0.00
2019-03-29T04:44:37.629Z,0.00
2019-03-29T04:45:37.628Z,0.00
2019-03-29T04:46:37.631Z,0.00
2019-03-29T04:47:37.625Z,0.00
2019-03-29T04:48:37.620Z,0.00
2019-03-29T04:49:37.659Z,5.63
2019-03-29T04:50:37.617Z,5.63
2019-03-29T04:51:37.620Z,5.63
2019-03-29T04:52:37.612Z,5.63
2019-03-29T04:53:37.605Z,5.63
2019-03-29T04:54:37.641Z,5.63
2019-03-29T04:55:37.645Z,11.25
2019-03-29T04:56:37.596Z,11.25
2019-03-29T04:57:37.602Z,11.25
2019-03-29T04:58:37.595Z,11.25
2019-03-29T04:59:37.637Z,16.88
2019-03-29T05:00:37.594Z,16.88
2019-03-29T05:01:37.594Z,16.88
2019-03-29T05:02:37.581Z,16.88
2019-03-29T05:03:37.590Z,22.50
2019-03-29T05:04:37.621Z,22.50
2019-03-29T05:05:37.573Z,22.50
2019-03-29T05:06:37.594Z,28.13
2019-03-29T05:07:37.565Z,28.13
2019-03-29T05:08:37.570Z,28.13
2019-03-29T05:09:37.606Z,33.75
2019-03-29T05:10:37.573Z,33.75
2019-03-29T05:11:37.572Z,33.75
2019-03-29T05:12:37.556Z,39.38
2019-03-29T05:13:37.554Z,39.38
2019-03-29T05:14:37.585Z,45.00
2019-03-29T05:15:37.593Z,45.00
2019-03-29T05:16:37.544Z,50.63
2019-03-29T05:17:37.549Z,50.63
2019-03-29T05:18:37.545Z,56.25
2019-03-29T05:19:37.569Z,56.25
2019-03-29T05:20:37.540Z,61.88
2019-03-29T05:21:37.574Z,61.88
2019-03-29T05:22:37.537Z,67.50
2019-03-29T05:23:37.530Z,67.50
2019-03-29T05:24:37.567Z,67.50
2019-03-29T05:25:37.526Z,73.13
2019-03-29T05:26:37.528Z,73.13
2019-03-29T05:27:37.513Z,78.75
2019-03-29T05:28:37.524Z,78.75
2019-03-29T05:29:37.550Z,84.38
2019-03-29T05:30:37.506Z,90.00
2019-03-29T05:31:37.509Z,95.63
2019-03-29T05:32:37.505Z,95.63
2019-03-29T05:33:37.505Z,101.25
2019-03-29T05:34:37.542Z,106.88
2019-03-29T05:35:37.497Z,106.88
2019-03-29T05:36:37.494Z,112.50
2019-03-29T05:37:37.526Z,118.13
2019-03-29T05:38:37.490Z,123.75
2019-03-29T05:39:37.490Z,123.75
2019-03-29T05:40:37.510Z,129.38
2019-03-29T05:41:37.484Z,140.63
2019-03-29T05:42:37.490Z,146.25
2019-03-29T05:43:37.524Z,157.50
2019-03-29T05:44:40.618Z,163.13
2019-03-29T05:45:37.510Z,168.75
2019-03-29T05:46:37.478Z,174.38
2019-03-29T05:47:37.469Z,180.00
2019-03-29T05:48:37.464Z,185.63
2019-03-29T05:49:37.459Z,191.25
2019-03-29T05:50:37.502Z,191.25
2019-03-29T05:51:37.455Z,196.88
2019-03-29T05:52:37.454Z,196.88
2019-03-29T05:53:37.452Z,202.50
2019-03-29T05:54:37.452Z,202.50
2019-03-29T05:55:37.479Z,208.13
2019-03-29T05:56:37.487Z,208.13
2019-03-29T05:57:37.445Z,208.13
2019-03-29T05:58:37.439Z,213.75
2019-03-29T05:59:37.438Z,213.75
2019-03-29T06:00:37.472Z,219.38
2019-03-29T06:01:37.434Z,225.00
2019-03-29T06:02:37.478Z,236.25
2019-03-29T06:03:37.435Z,236.25
2019-03-29T06:04:37.427Z,241.88
2019-03-29T06:05:37.467Z,247.50
2019-03-29T06:06:37.423Z,258.75
2019-03-29T06:07:37.422Z,264.38
2019-03-29T06:08:37.418Z,275.63
2019-03-29T06:09:37.415Z,286.88
2019-03-29T06:10:48.419Z,292.50
2019-03-29T06:11:37.451Z,298.13
2019-03-29T06:12:37.416Z,303.75
2019-03-29T06:13:37.403Z,303.75
2019-03-29T06:14:37.406Z,309.38
2019-03-29T06:15:37.403Z,326.25
2019-03-29T06:16:39.266Z,331.88
2019-03-29T06:17:48.035Z,337.50
2019-03-29T06:18:37.402Z,331.88
2019-03-29T06:19:37.395Z,326.25
2019-03-29T06:20:37.454Z,343.13
2019-03-29T06:21:37.424Z,354.38
2019-03-29T06:22:37.391Z,365.63
2019-03-29T06:23:37.436Z,371.25
2019-03-29T06:24:37.396Z,376.88
2019-03-29T06:25:37.383Z,371.25
2019-03-29T06:26:37.423Z,376.88
2019-03-29T06:27:37.381Z,376.88
2019-03-29T06:28:37.376Z,371.25
2019-03-29T06:29:37.371Z,371.25
2019-03-29T06:30:37.376Z,382.50
2019-03-29T06:31:37.411Z,376.88
2019-03-29T06:32:37.413Z,371.25
2019-03-29T06:33:37.380Z,376.88
2019-03-29T06:34:37.364Z,388.13
2019-03-29T06:35:37.365Z,393.75
2019-03-29T06:36:37.364Z,410.63
2019-03-29T06:37:37.396Z,433.13
2019-03-29T06:38:37.408Z,444.38
2019-03-29T06:39:37.364Z,444.38
2019-03-29T06:40:37.355Z,438.75
2019-03-29T06:41:37.357Z,444.38
2019-03-29T06:42:37.394Z,450.00
2019-03-29T06:43:37.352Z,455.63
2019-03-29T06:44:37.348Z,466.88
2019-03-29T06:45:47.117Z,478.13
2019-03-29T06:46:37.353Z,483.75
2019-03-29T06:47:37.348Z,489.38
2019-03-29T06:48:37.381Z,500.63
2019-03-29T06:49:37.340Z,506.25
2019-03-29T06:50:37.383Z,506.25
2019-03-29T06:51:37.355Z,528.75
2019-03-29T06:52:37.344Z,551.25
2019-03-29T06:53:37.376Z,562.50
2019-03-29T06:54:37.335Z,568.13
2019-03-29T06:55:37.345Z,579.38
2019-03-29T06:56:37.333Z,585.00
2019-03-29T06:57:37.337Z,596.25
2019-03-29T06:58:37.356Z,601.88
2019-03-29T06:59:37.360Z,607.50
2019-03-29T07:00:37.328Z,613.13
2019-03-29T07:01:37.325Z,618.75
2019-03-29T07:02:37.329Z,624.38
2019-03-29T07:03:37.334Z,635.63
2019-03-29T07:04:37.322Z,646.88
2019-03-29T07:05:37.374Z,658.13
2019-03-29T07:06:37.329Z,663.75
2019-03-29T07:07:37.320Z,680.63
2019-03-29T07:08:37.356Z,691.88
2019-03-29T07:09:37.321Z,708.75
2019-03-29T07:10:37.317Z,708.75
2019-03-29T07:11:39.652Z,714.38
2019-03-29T07:12:37.318Z,731.25
2019-03-29T07:13:37.352Z,736.88
2019-03-29T07:14:37.314Z,731.25
2019-03-29T07:15:37.313Z,736.88
2019-03-29T07:16:37.309Z,731.25
2019-03-29T07:17:37.317Z,731.25
2019-03-29T07:18:37.347Z,731.25
2019-03-29T07:19:37.356Z,731.25
2019-03-29T07:20:37.310Z,742.50
2019-03-29T07:21:37.309Z,748.13
2019-03-29T07:22:37.307Z,748.13
2019-03-29T07:23:37.347Z,748.13
2019-03-29T07:24:37.314Z,753.75
2019-03-29T07:25:37.305Z,748.13
2019-03-29T07:26:37.305Z,736.88
2019-03-29T07:27:44.599Z,742.50
2019-03-29T07:28:37.342Z,753.75
2019-03-29T07:29:37.346Z,765.00
2019-03-29T07:30:37.342Z,776.25
2019-03-29T07:31:37.308Z,787.50
2019-03-29T07:32:37.301Z,798.75
2019-03-29T07:33:37.307Z,804.38
2019-03-29T07:34:37.298Z,804.38
2019-03-29T07:35:37.339Z,815.63
2019-03-29T07:36:37.301Z,821.25
2019-03-29T07:37:37.302Z,832.50
2019-03-29T07:38:37.306Z,843.75
2019-03-29T07:39:37.326Z,871.88
2019-03-29T07:40:37.332Z,900.00
2019-03-29T07:41:37.334Z,922.50
2019-03-29T07:42:37.314Z,945.00
2019-03-29T07:43:37.312Z,956.25
2019-03-29T07:44:37.302Z,967.50
2019-03-29T07:45:37.301Z,967.50
2019-03-29T07:46:37.304Z,961.88
2019-03-29T07:47:37.343Z,961.88
2019-03-29T07:48:40.287Z,973.13
2019-03-29T07:49:37.298Z,973.13
2019-03-29T07:50:37.344Z,990.00
2019-03-29T07:51:37.310Z,995.63
2019-03-29T07:52:37.304Z,995.63
2019-03-29T07:53:37.299Z,995.63
2019-03-29T07:54:37.299Z,990.00
2019-03-29T07:55:37.649Z,978.75
2019-03-29T07:56:37.309Z,961.88
2019-03-29T07:57:37.299Z,939.38
2019-03-29T07:58:37.307Z,922.50
2019-03-29T07:59:37.310Z,888.75
2019-03-29T08:00:37.339Z,871.88
2019-03-29T08:01:37.311Z,860.63
2019-03-29T08:02:37.313Z,860.63
2019-03-29T08:03:37.309Z,866.25
2019-03-29T08:04:37.308Z,877.50
2019-03-29T08:05:37.307Z,888.75
2019-03-29T08:06:37.355Z,900.00
2019-03-29T08:07:37.315Z,905.63
2019-03-29T08:08:37.311Z,916.88
2019-03-29T08:09:37.321Z,933.75
2019-03-29T08:10:37.321Z,956.25
2019-03-29T08:11:46.227Z,990.00
2019-03-29T08:12:40.419Z,1018.13
2019-03-29T08:13:37.312Z,1046.25
2019-03-29T08:14:37.309Z,1074.38
2019-03-29T08:15:37.323Z,1102.50
2019-03-29T08:16:37.348Z,1136.25
2019-03-29T08:17:37.324Z,1158.75
2019-03-29T08:18:37.318Z,1186.88
2019-03-29T08:19:37.495Z,1203.75
2019-03-29T08:20:43.321Z,1237.50
2019-03-29T08:21:37.354Z,1260.00
2019-03-29T08:22:37.357Z,1293.75
2019-03-29T08:23:37.326Z,1310.63
2019-03-29T08:24:37.324Z,1310.63
2019-03-29T08:25:37.324Z,1293.75
2019-03-29T08:26:37.351Z,1271.25
2019-03-29T08:27:37.322Z,1260.00
2019-03-29T08:28:37.369Z,1260.00
2019-03-29T08:29:37.327Z,1265.63
2019-03-29T08:30:37.332Z,1271.25
2019-03-29T08:31:37.366Z,1288.13
2019-03-29T08:32:37.330Z,1305.00
2019-03-29T08:33:37.328Z,1321.88
2019-03-29T08:34:37.334Z,1333.13
2019-03-29T08:35:37.335Z,1350.00
2019-03-29T08:36:37.379Z,1361.25
2019-03-29T08:37:37.340Z,1383.75
2019-03-29T08:38:37.345Z,1423.13
2019-03-29T08:39:37.344Z,1479.38
2019-03-29T08:40:37.342Z,1518.75
2019-03-29T08:41:37.345Z,1552.50
2019-03-29T08:42:37.389Z,1563.75
2019-03-29T08:43:37.346Z,1575.00
2019-03-29T08:44:37.346Z,1597.50
2019-03-29T08:45:37.371Z,1642.50
2019-03-29T08:46:37.355Z,1710.00
2019-03-29T08:47:37.385Z,1800.00
2019-03-29T08:48:37.390Z,1850.63
2019-03-29T08:49:37.367Z,1738.13
2019-03-29T08:50:37.360Z,1710.00
2019-03-29T08:51:37.365Z,1693.13
2019-03-29T08:52:37.398Z,1670.63
2019-03-29T08:53:37.363Z,1653.75
2019-03-29T08:54:37.366Z,1636.88
2019-03-29T08:55:45.591Z,1614.38
2019-03-29T08:56:37.375Z,1580.63
2019-03-29T08:57:37.405Z,1541.25
2019-03-29T08:58:37.418Z,1524.38
2019-03-29T08:59:37.390Z,1530.00
2019-03-29T09:00:37.390Z,1552.50
2019-03-29T09:01:37.399Z,1580.63
2019-03-29T09:02:37.438Z,1608.75
2019-03-29T09:03:37.398Z,1653.75
2019-03-29T09:04:37.399Z,1755.00
2019-03-29T09:05:39.185Z,1738.13
2019-03-29T09:06:37.399Z,1800.00
2019-03-29T09:07:44.463Z,1878.75
2019-03-29T09:08:37.405Z,1850.63
2019-03-29T09:09:37.407Z,1822.50
2019-03-29T09:10:37.414Z,1766.25
2019-03-29T09:11:38.927Z,1732.50
2019-03-29T09:12:37.455Z,1704.38
2019-03-29T09:13:37.427Z,1642.50
2019-03-29T09:14:37.422Z,1603.13
2019-03-29T09:15:37.428Z,1591.88
2019-03-29T09:16:37.428Z,1586.25
2019-03-29T09:17:37.468Z,1558.13
2019-03-29T09:18:37.443Z,1507.50
2019-03-29T09:19:37.436Z,1479.38
2019-03-29T09:20:37.441Z,1462.50
2019-03-29T09:21:37.469Z,1434.38
2019-03-29T09:22:37.440Z,1400.63
2019-03-29T09:23:37.482Z,1383.75
2019-03-29T09:24:37.453Z,1378.13
2019-03-29T09:25:40.276Z,1389.38
2019-03-29T09:26:37.989Z,1423.13
2019-03-29T09:27:37.469Z,1440.00
2019-03-29T09:28:37.488Z,1462.50
2019-03-29T09:29:37.502Z,1496.25
2019-03-29T09:30:37.464Z,1535.63
2019-03-29T09:31:37.459Z,1586.25
2019-03-29T09:32:37.461Z,1642.50
2019-03-29T09:33:37.496Z,1693.13
2019-03-29T09:34:37.464Z,1715.63
2019-03-29T09:35:37.509Z,1726.88
2019-03-29T09:36:37.476Z,1721.25
2019-03-29T09:37:37.475Z,1687.50
2019-03-29T09:38:37.517Z,1642.50
2019-03-29T09:39:37.479Z,1580.63
2019-03-29T09:40:37.484Z,1524.38
2019-03-29T09:41:37.482Z,1479.38
2019-03-29T09:42:37.488Z,1451.25
2019-03-29T09:43:37.517Z,1428.75
2019-03-29T09:44:37.490Z,1428.75
2019-03-29T09:45:40.826Z,1451.25
2019-03-29T09:46:37.489Z,1496.25
2019-03-29T09:47:40.629Z,1518.75
2019-03-29T09:48:37.520Z,1518.75
2019-03-29T09:49:37.539Z,1501.88
2019-03-29T09:50:37.515Z,1530.00
2019-03-29T09:51:37.502Z,1631.25
2019-03-29T09:52:37.514Z,3718.13
2019-03-29T09:53:40.836Z,2351.25
2019-03-29T09:54:37.508Z,2081.25
2019-03-29T09:55:37.517Z,1811.25
2019-03-29T09:56:39.053Z,1710.00
2019-03-29T09:57:38.268Z,1636.88
2019-03-29T09:58:37.566Z,1608.75
2019-03-29T09:59:37.521Z,1586.25
2019-03-29T10:00:37.533Z,1524.38
2019-03-29T10:01:37.526Z,1468.13
2019-03-29T10:02:37.601Z,1423.13
2019-03-29T10:03:37.566Z,1395.00
2019-03-29T10:04:37.533Z,1383.75
2019-03-29T10:05:37.537Z,1383.75
2019-03-29T10:06:37.552Z,1389.38
2019-03-29T10:07:37.547Z,1395.00
2019-03-29T10:08:37.553Z,1406.25
2019-03-29T10:09:37.586Z,1423.13
2019-03-29T10:10:37.554Z,1428.75
2019-03-29T10:11:37.551Z,1417.50
2019-03-29T10:12:43.642Z,1417.50
2019-03-29T10:13:37.562Z,1406.25
2019-03-29T10:14:37.608Z,1400.63
2019-03-29T10:15:37.572Z,1411.88
2019-03-29T10:16:37.562Z,1428.75
2019-03-29T10:17:37.570Z,1445.63
2019-03-29T10:18:37.571Z,1468.13
2019-03-29T10:19:37.606Z,1485.00
2019-03-29T10:20:37.616Z,1496.25
2019-03-29T10:21:37.582Z,1524.38
2019-03-29T10:22:37.579Z,1569.38
2019-03-29T10:23:37.584Z,1636.88
2019-03-29T10:24:37.636Z,1670.63
2019-03-29T10:25:37.586Z,1676.25
2019-03-29T10:26:37.596Z,1693.13
2019-03-29T10:27:37.599Z,1698.75
2019-03-29T10:28:37.595Z,1698.75
2019-03-29T10:29:37.630Z,1687.50
2019-03-29T10:30:37.602Z,1659.38
2019-03-29T10:31:37.600Z,1631.25
2019-03-29T10:32:37.607Z,1597.50
2019-03-29T10:33:37.608Z,1569.38
2019-03-29T10:34:37.747Z,1558.13
2019-03-29T10:35:50.945Z,1541.25
2019-03-29T10:36:37.621Z,1535.63
2019-03-29T10:37:37.619Z,1541.25
2019-03-29T10:38:37.623Z,1563.75
2019-03-29T10:39:37.653Z,1586.25
2019-03-29T10:40:37.629Z,1591.88
2019-03-29T10:41:38.134Z,1569.38
2019-03-29T10:42:40.093Z,1569.38
2019-03-29T10:43:37.636Z,1580.63
2019-03-29T10:44:37.644Z,1591.88
2019-03-29T10:45:40.297Z,1614.38
2019-03-29T10:46:37.649Z,1625.63
2019-03-29T10:47:43.711Z,1631.25
2019-03-29T10:48:37.651Z,1620.00
2019-03-29T10:49:37.681Z,1591.88
2019-03-29T10:50:37.661Z,1558.13
2019-03-29T10:51:37.703Z,1558.13
2019-03-29T10:52:37.660Z,1546.88
2019-03-29T10:53:37.672Z,1575.00
2019-03-29T10:54:37.712Z,1620.00
2019-03-29T10:55:37.680Z,1636.88
2019-03-29T10:56:37.681Z,1625.63
2019-03-29T10:57:37.688Z,1608.75
2019-03-29T10:58:37.680Z,1614.38
2019-03-29T10:59:37.717Z,1591.88
2019-03-29T11:00:37.736Z,1558.13
2019-03-29T11:01:37.696Z,1535.63
2019-03-29T11:02:37.703Z,1518.75
2019-03-29T11:03:37.706Z,1507.50
2019-03-29T11:04:37.700Z,1501.88
2019-03-29T11:05:37.745Z,1496.25
2019-03-29T11:06:37.745Z,1507.50
2019-03-29T11:07:37.712Z,1524.38
2019-03-29T11:08:37.718Z,1575.00
2019-03-29T11:09:37.728Z,1631.25
2019-03-29T11:10:37.765Z,1704.38
2019-03-29T11:11:37.737Z,1755.00
2019-03-29T11:12:37.743Z,1771.88
2019-03-29T11:13:40.740Z,1788.75
2019-03-29T11:14:37.749Z,1923.75
2019-03-29T11:15:37.782Z,1985.63
2019-03-29T11:16:37.758Z,2025.00
2019-03-29T11:17:37.757Z,2790.00
2019-03-29T11:18:37.762Z,2098.13
2019-03-29T11:19:37.776Z,2300.63
2019-03-29T11:20:37.766Z,2795.63
2019-03-29T11:21:37.809Z,4848.75
2019-03-29T11:22:37.785Z,4786.88
2019-03-29T11:23:37.789Z,2919.38
2019-03-29T11:24:37.793Z,2328.75
2019-03-29T11:25:37.835Z,2250.00
2019-03-29T11:26:37.873Z,2306.25
2019-03-29T11:27:37.811Z,3245.63
2019-03-29T11:28:37.823Z,4792.50
2019-03-29T11:29:37.834Z,3082.50
2019-03-29T11:30:42.597Z,3470.63
2019-03-29T11:31:37.859Z,4320.00
2019-03-29T11:32:37.866Z,3870.00
2019-03-29T11:33:37.876Z,4398.75
2019-03-29T11:34:37.886Z,3386.25
2019-03-29T11:35:37.934Z,2621.25
2019-03-29T11:36:37.947Z,2441.25
2019-03-29T11:37:37.919Z,4325.63
2019-03-29T11:38:37.932Z,2486.25
2019-03-29T11:39:37.947Z,4218.75
2019-03-29T11:40:37.960Z,1991.25
2019-03-29T11:41:38.006Z,1816.88
2019-03-29T11:42:37.983Z,1771.88
2019-03-29T11:43:38.003Z,1738.13
2019-03-29T11:44:38.008Z,1710.00
2019-03-29T11:45:38.027Z,1710.00
2019-03-29T11:46:38.066Z,1721.25
2019-03-29T11:47:38.077Z,1710.00
2019-03-29T11:48:38.059Z,1755.00
2019-03-29T11:49:38.077Z,1715.63
2019-03-29T11:50:38.079Z,1698.75
2019-03-29T11:51:38.096Z,1681.88
2019-03-29T11:52:38.128Z,1704.38
2019-03-29T11:53:38.156Z,1788.75
2019-03-29T11:54:38.125Z,1771.88
2019-03-29T11:55:38.130Z,1721.25
2019-03-29T11:56:38.177Z,1710.00
2019-03-29T11:57:38.148Z,1738.13
2019-03-29T11:58:38.151Z,1783.13
2019-03-29T11:59:40.134Z,1800.00
2019-03-29T12:00:38.176Z,1884.38
2019-03-29T12:01:38.210Z,1856.25
2019-03-29T12:02:38.222Z,1845.00
2019-03-29T12:03:38.199Z,1861.88
2019-03-29T12:04:38.201Z,1946.25
2019-03-29T12:05:38.216Z,1963.13
2019-03-29T12:06:38.240Z,1935.00
2019-03-29T12:07:38.223Z,1760.63
2019-03-29T12:08:38.270Z,1704.38
2019-03-29T12:09:38.234Z,1710.00
2019-03-29T12:10:38.242Z,1693.13
2019-03-29T12:11:38.297Z,1738.13
2019-03-29T12:12:38.256Z,1816.88
2019-03-29T12:13:41.220Z,2008.13
2019-03-29T12:14:38.274Z,2418.75
2019-03-29T12:15:38.275Z,2598.75
2019-03-29T12:16:38.331Z,2002.50
2019-03-29T12:17:38.332Z,3313.13
2019-03-29T12:18:38.299Z,2542.50
2019-03-29T12:19:38.310Z,1777.50
2019-03-29T12:20:38.330Z,1535.63
2019-03-29T12:21:38.337Z,1665.00
2019-03-29T12:22:38.380Z,1951.88
2019-03-29T12:23:38.339Z,3341.25
2019-03-29T12:24:38.352Z,3459.38
2019-03-29T12:25:38.370Z,3318.75
2019-03-29T12:26:38.403Z,3515.63
2019-03-29T12:27:38.378Z,3346.88
2019-03-29T12:28:38.391Z,1524.38
2019-03-29T12:29:38.399Z,1575.00
2019-03-29T12:30:38.418Z,1552.50
2019-03-29T12:31:38.448Z,1389.38
2019-03-29T12:32:38.467Z,1423.13
2019-03-29T12:33:38.436Z,1479.38
2019-03-29T12:34:38.446Z,1310.63
2019-03-29T12:35:38.475Z,1192.50
2019-03-29T12:36:38.485Z,1192.50
2019-03-29T12:37:38.518Z,1158.75
2019-03-29T12:38:38.525Z,1175.63
2019-03-29T12:39:38.501Z,2542.50